Aviation Digital Data Service (ADDS)

Output produced by METARs form (1331 UTC 16 August 2017)
found at http://aviationweather.gov/adds/metars/
 
KFRG 161253Z 35008KT 10SM CLR 24/20 A2995 RMK AO2 SLP142 T02390200
KISP 161256Z 35009KT 10SM FEW008 FEW250 24/21 A2994 RMK AO2 SLP138 T02440206 $
KISP 161256Z 1613/1712 33006KT P6SM SCT008 
     FM161500 32009KT P6SM SCT050 
     FM162200 22007KT P6SM SCT050 
     FM170300 34004KT P6SM SCT040 
     FM170600 01005KT P6SM SCT040
       
KJFK 161251Z 33009KT 10SM FEW350 24/21 A2996 RMK AO2 SLP145 T02440206
KJFK 161329Z 1613/1718 33009KT P6SM FEW250 
     FM161500 32010KT P6SM SCT050 
     FM162000 20007KT P6SM SCT050 
     FM170200 30006KT P6SM SCT040 
     FM170600 36006KT P6SM SCT040 
     FM171300 04008KT P6SM SCT050
       
KBDR 161252Z 35011KT 10SM CLR 24/18 A2994 RMK AO2 SLP139 T02440178
KBDR 161329Z 1613/1712 35011KT P6SM SKC 
     FM161800 23007KT P6SM SCT050 
     FM170200 33004KT P6SM SCT040 
     FM170600 01005KT P6SM SCT040